Time;durP1;ratioP1;P1;durP2;ratioP2;P2;SDS_P1;SDS_P2;PMS_P1;PMS_P2;Temp;Humidity;BMP_temperature;BMP_pressure;BME280_temperature;BME280_humidity;BME280_pressure;Samples;Min_cycle;Max_cycle;Signal;HPM_P1;HPM_P2
2021/01/06 00:02:07;;;;;;;15.77;13.03;;;4.40;99.90;;;;;;5069911;28;20173;-58
2021/01/06 00:04:33;;;;;;;13.93;11.32;;;3.90;99.90;;;;;;5064111;28;20257;-58
2021/01/06 00:06:58;;;;;;;15.93;12.37;;;4.20;99.90;;;;;;5066020;28;20355;-58
2021/01/06 00:09:24;;;;;;;14.63;12.47;;;4.20;99.90;;;;;;5069553;28;20717;-58
2021/01/06 00:11:49;;;;;;;15.77;11.70;;;4.20;99.90;;;;;;5070008;28;20723;-58
2021/01/06 00:14:16;;;;;;;17.40;12.37;;;4.10;99.90;;;;;;5062114;28;20671;-58
2021/01/06 00:16:42;;;;;;;16.17;11.60;;;4.40;99.90;;;;;;5069924;28;20272;-58
2021/01/06 00:19:12;;;;;;;12.98;10.63;;;4.60;99.90;;;;;;5059164;28;20198;-58
2021/01/06 00:21:41;;;;;;;17.75;13.32;;;4.40;99.90;;;;;;5068320;28;20181;-58
2021/01/06 00:24:07;;;;;;;17.13;12.73;;;4.40;99.90;;;;;;5057901;28;20219;-58
2021/01/06 00:26:34;;;;;;;15.57;12.23;;;4.30;99.90;;;;;;5062535;28;20594;-58
2021/01/06 00:28:59;;;;;;;17.63;12.60;;;4.40;99.90;;;;;;5061155;28;20568;-58
2021/01/06 00:31:26;;;;;;;15.60;13.13;;;4.30;99.90;;;;;;5060117;28;20753;-55
2021/01/06 00:33:51;;;;;;;18.75;13.02;;;4.40;99.90;;;;;;5061564;28;20223;-58
2021/01/06 00:36:20;;;;;;;17.97;13.37;;;4.20;99.90;;;;;;5065650;28;20731;-56
2021/01/06 00:38:46;;;;;;;17.67;13.13;;;4.40;99.90;;;;;;5068844;28;20243;-56
2021/01/06 00:41:11;;;;;;;17.67;13.00;;;4.20;99.90;;;;;;5062362;28;20198;-57
2021/01/06 00:43:37;;;;;;;17.30;13.00;;;4.20;99.90;;;;;;5060942;28;20441;-55
2021/01/06 00:46:03;;;;;;;16.70;13.00;;;4.20;99.90;;;;;;5064088;28;20455;-55
2021/01/06 00:48:29;;;;;;;17.73;13.32;;;4.30;99.90;;;;;;5065538;28;20220;-57
2021/01/06 00:50:54;;;;;;;16.23;13.00;;;4.30;99.90;;;;;;5068467;28;20188;-58
2021/01/06 00:53:23;;;;;;;16.30;12.30;;;4.40;99.90;;;;;;5057690;28;20185;-55
2021/01/06 00:55:50;;;;;;;18.00;13.25;;;4.10;99.90;;;;;;5061597;28;20205;-58
2021/01/06 00:58:16;;;;;;;15.55;11.70;;;4.00;99.90;;;;;;5059137;28;20197;-57
2021/01/06 01:00:41;;;;;;;19.13;13.90;;;4.20;99.90;;;;;;5059279;28;20185;-58
2021/01/06 01:03:07;;;;;;;14.73;11.63;;;4.10;99.90;;;;;;5054255;28;20252;-57
2021/01/06 01:05:34;;;;;;;15.00;11.53;;;4.20;99.90;;;;;;5063517;28;20850;-58
2021/01/06 01:08:00;;;;;;;17.42;11.52;;;4.10;99.90;;;;;;5068744;28;20219;-58
2021/01/06 01:10:36;;;;;;;13.82;10.68;;;4.30;99.90;;;;;;5064783;28;20738;-56
2021/01/06 01:13:23;;;;;;;17.73;11.77;;;4.20;99.90;;;;;;5068794;28;20280;-59
2021/01/06 01:15:52;;;;;;;19.38;12.75;;;4.20;99.90;;;;;;5065614;28;20207;-58
2021/01/06 01:18:24;;;;;;;16.42;11.00;;;4.10;99.90;;;;;;5061443;28;20624;-58
2021/01/06 01:20:52;;;;;;;15.60;10.85;;;4.20;99.90;;;;;;5063466;28;20181;-56
2021/01/06 01:23:20;;;;;;;14.40;10.80;;;4.20;99.90;;;;;;5063068;28;20265;-56
2021/01/06 01:25:46;;;;;;;15.38;10.63;;;4.40;99.90;;;;;;5055045;28;20185;-56
2021/01/06 01:28:13;;;;;;;15.68;11.18;;;4.30;99.90;;;;;;5062657;28;20304;-55
2021/01/06 01:30:39;;;;;;;14.95;10.82;;;4.30;99.90;;;;;;5065873;28;20185;-55
2021/01/06 01:33:05;;;;;;;12.93;10.10;;;4.20;99.90;;;;;;5056495;28;20196;-56
2021/01/06 01:35:32;;;;;;;13.80;11.53;;;4.00;99.90;;;;;;5054110;28;20204;-56
2021/01/06 01:38:00;;;;;;;18.20;11.15;;;4.20;99.90;;;;;;5056549;28;20458;-56
2021/01/06 01:40:38;;;;;;;15.85;11.90;;;4.10;99.90;;;;;;5065300;28;20677;-56
2021/01/06 01:43:12;;;;;;;12.75;10.05;;;3.90;99.90;;;;;;5064409;28;20186;-56
2021/01/06 01:45:50;;;;;;;12.48;9.93;;;4.10;99.90;;;;;;5057579;28;20212;-58
2021/01/06 01:48:38;;;;;;;16.05;11.40;;;4.00;99.90;;;;;;5059463;28;20225;-58
2021/01/06 01:51:21;;;;;;;12.98;10.25;;;4.00;99.90;;;;;;5068154;28;20235;-58
2021/01/06 01:54:00;;;;;;;14.50;11.07;;;3.90;99.90;;;;;;5053820;28;20188;-57
2021/01/06 01:56:50;;;;;;;15.52;11.32;;;3.90;99.90;;;;;;5079613;28;20193;-57
2021/01/06 01:59:26;;;;;;;15.18;10.93;;;4.10;99.90;;;;;;5058667;28;20185;-58
2021/01/06 02:01:55;;;;;;;13.98;9.95;;;4.00;99.90;;;;;;5059951;28;20176;-57
2021/01/06 02:04:30;;;;;;;14.35;10.65;;;4.10;99.90;;;;;;5054942;28;20643;-58
2021/01/06 02:07:02;;;;;;;14.27;9.75;;;4.10;99.90;;;;;;5068405;28;20191;-57
2021/01/06 02:09:59;;;;;;;14.20;10.85;;;4.00;99.90;;;;;;5067600;28;20209;-58
2021/01/06 02:12:42;;;;;;;12.20;9.55;;;3.90;99.90;;;;;;5065116;28;20189;-58
2021/01/06 02:15:26;;;;;;;15.95;11.07;;;3.80;99.90;;;;;;5065944;28;20219;-56
2021/01/06 02:17:52;;;;;;;12.50;9.02;;;4.00;99.90;;;;;;5065340;28;20292;-58
2021/01/06 02:20:20;;;;;;;13.67;10.23;;;4.00;99.90;;;;;;5060439;28;20256;-58
2021/01/06 02:22:46;;;;;;;14.48;10.38;;;3.90;99.90;;;;;;5059424;28;20909;-56
2021/01/06 02:25:13;;;;;;;14.43;10.80;;;4.00;99.90;;;;;;5066878;28;20181;-56
2021/01/06 02:27:39;;;;;;;16.27;11.35;;;3.70;99.90;;;;;;5065513;28;20189;-58
2021/01/06 02:30:07;;;;;;;16.00;11.00;;;3.60;99.90;;;;;;5059476;28;20255;-58
2021/01/06 02:32:33;;;;;;;12.60;10.27;;;4.00;99.90;;;;;;5066709;28;20182;-58
2021/01/06 02:35:04;;;;;;;14.75;10.60;;;3.50;99.90;;;;;;5052554;28;20209;-58
2021/01/06 02:37:29;;;;;;;14.13;9.52;;;4.00;99.90;;;;;;5048225;28;20209;-58
2021/01/06 02:39:55;;;;;;;14.10;9.77;;;4.10;99.90;;;;;;5051735;28;20555;-57
2021/01/06 02:42:21;;;;;;;11.77;9.50;;;4.20;99.90;;;;;;5054157;28;20181;-58
2021/01/06 02:44:47;;;;;;;17.10;10.17;;;3.80;99.90;;;;;;5054402;28;20182;-58
2021/01/06 02:47:14;;;;;;;11.87;9.70;;;3.90;99.90;;;;;;5067191;28;20259;-59
2021/01/06 02:49:40;;;;;;;12.65;9.90;;;3.90;99.90;;;;;;5061484;28;20469;-58
2021/01/06 02:52:20;;;;;;;11.15;9.57;;;3.90;99.90;;;;;;5072061;28;20556;-58
2021/01/06 02:54:48;;;;;;;12.55;9.85;;;4.10;99.90;;;;;;5061226;28;20213;-58
2021/01/06 02:57:16;;;;;;;16.52;10.60;;;3.90;99.90;;;;;;5070710;28;20204;-57
2021/01/06 02:59:45;;;;;;;12.65;9.75;;;3.40;99.90;;;;;;5069861;28;20181;-58
2021/01/06 03:02:16;;;;;;;12.02;10.10;;;3.60;99.90;;;;;;5071425;28;20743;-58
2021/01/06 03:04:47;;;;;;;12.23;9.75;;;3.50;99.90;;;;;;5058105;28;20224;-56
2021/01/06 03:07:15;;;;;;;11.98;9.77;;;3.50;99.90;;;;;;5074999;28;20770;-58
2021/01/06 03:09:43;;;;;;;11.80;9.00;;;3.50;99.90;;;;;;5056216;28;20177;-58
2021/01/06 03:12:21;;;;;;;12.70;9.85;;;3.60;99.90;;;;;;5064062;28;20189;-58
2021/01/06 03:14:47;;;;;;;14.27;10.48;;;3.80;99.90;;;;;;5059696;28;20197;-58
2021/01/06 03:17:15;;;;;;;15.20;11.00;;;3.80;99.90;;;;;;5070915;28;20670;-58
2021/01/06 03:19:44;;;;;;;14.05;10.52;;;3.60;99.90;;;;;;5058768;28;20260;-58
2021/01/06 03:22:12;;;;;;;12.88;10.07;;;3.90;99.90;;;;;;5063385;28;20185;-58
2021/01/06 03:24:43;;;;;;;13.10;9.48;;;3.70;99.90;;;;;;5059216;28;20269;-58
2021/01/06 03:27:11;;;;;;;15.00;10.02;;;3.50;99.90;;;;;;5065139;28;20188;-58
2021/01/06 03:29:39;;;;;;;14.50;10.00;;;3.60;99.90;;;;;;5062338;28;20189;-58
2021/01/06 03:32:10;;;;;;;13.40;9.15;;;3.50;99.90;;;;;;5069052;28;20235;-59
2021/01/06 03:34:47;;;;;;;12.20;9.95;;;3.10;99.90;;;;;;5067328;28;20208;-55
2021/01/06 03:37:19;;;;;;;11.57;9.05;;;3.40;99.90;;;;;;5058575;28;20288;-58
2021/01/06 03:39:53;;;;;;;11.07;9.40;;;3.40;99.90;;;;;;5064335;28;20177;-58
2021/01/06 03:42:19;;;;;;;12.50;9.43;;;3.40;99.90;;;;;;5069783;28;20256;-58
2021/01/06 03:44:46;;;;;;;12.18;9.32;;;3.60;99.90;;;;;;5063029;28;20221;-58
2021/01/06 03:47:18;;;;;;;10.85;9.13;;;3.50;99.90;;;;;;5065359;28;20781;-57
2021/01/06 03:49:56;;;;;;;10.93;9.20;;;3.40;99.90;;;;;;5053064;28;20181;-57
2021/01/06 03:52:45;;;;;;;13.13;9.90;;;3.50;99.90;;;;;;5057828;28;20188;-58
2021/01/06 03:55:16;;;;;;;10.18;8.90;;;3.50;99.90;;;;;;5067897;28;20197;-57
2021/01/06 03:57:43;;;;;;;11.07;9.45;;;3.30;99.90;;;;;;5070755;28;20212;-55
2021/01/06 04:00:18;;;;;;;12.50;10.02;;;3.30;99.90;;;;;;5055791;28;20576;-58
2021/01/06 04:02:49;;;;;;;14.32;10.43;;;3.50;99.90;;;;;;5069127;28;20180;-57
2021/01/06 04:05:18;;;;;;;14.05;10.48;;;3.50;99.90;;;;;;5058343;28;20558;-58
2021/01/06 04:07:55;;;;;;;14.00;10.27;;;3.60;99.90;;;;;;5069717;28;20213;-58
2021/01/06 04:10:32;;;;;;;13.35;9.63;;;3.30;99.90;;;;;;5058787;28;20268;-58
2021/01/06 04:12:58;;;;;;;14.32;10.77;;;3.30;99.90;;;;;;5056595;28;20685;-57
2021/01/06 04:15:23;;;;;;;15.50;10.68;;;3.40;99.90;;;;;;5067829;28;20217;-57
2021/01/06 04:17:52;;;;;;;14.70;10.17;;;3.50;99.90;;;;;;5068619;28;20262;-58
2021/01/06 04:20:31;;;;;;;14.15;10.77;;;3.50;99.90;;;;;;5061224;28;20195;-57
2021/01/06 04:23:00;;;;;;;14.23;10.10;;;3.60;99.90;;;;;;5063644;28;20177;-58
2021/01/06 04:25:29;;;;;;;12.77;10.00;;;3.40;99.90;;;;;;5059212;28;20178;-58
2021/01/06 04:27:59;;;;;;;12.38;10.15;;;3.50;99.90;;;;;;5062835;28;20240;-58
2021/01/06 04:30:50;;;;;;;11.50;8.82;;;3.30;99.90;;;;;;5076146;28;20238;-58
2021/01/06 04:33:18;;;;;;;12.60;10.15;;;3.30;99.90;;;;;;5060227;28;20177;-55
2021/01/06 04:35:45;;;;;;;18.83;10.60;;;3.40;99.90;;;;;;5076261;28;20299;-58
2021/01/06 04:38:23;;;;;;;13.32;9.27;;;3.20;99.90;;;;;;5053224;28;20719;-58
2021/01/06 04:40:53;;;;;;;14.45;10.15;;;3.80;99.90;;;;;;5061017;28;20190;-56
2021/01/06 04:43:43;;;;;;;11.88;9.57;;;3.50;99.90;;;;;;5057697;28;20256;-58
2021/01/06 04:46:43;;;;;;;13.93;9.18;;;3.40;99.90;;;;;;5055054;28;20326;-58
2021/01/06 04:49:27;;;;;;;15.07;9.75;;;3.00;99.90;;;;;;5056954;28;20217;-58
2021/01/06 04:52:12;;;;;;;15.00;10.20;;;3.30;99.90;;;;;;5077717;28;20182;-57
2021/01/06 04:55:02;;;;;;;17.10;11.45;;;3.40;99.90;;;;;;5055662;28;20300;-58
2021/01/06 04:57:50;;;;;;;13.52;10.57;;;3.50;99.90;;;;;;5064857;28;20238;-57
2021/01/06 05:00:29;;;;;;;14.65;10.93;;;3.50;99.90;;;;;;5065371;28;20177;-58
2021/01/06 05:03:25;;;;;;;14.63;10.52;;;3.20;99.90;;;;;;5056646;28;20827;-58
2021/01/06 05:06:02;;;;;;;16.33;11.13;;;3.30;99.90;;;;;;5060132;28;20286;-58
2021/01/06 05:08:47;;;;;;;15.73;10.70;;;3.60;99.90;;;;;;5061980;28;20204;-58
2021/01/06 05:11:29;;;;;;;16.10;10.90;;;2.80;99.90;;;;;;5053685;28;20182;-57
2021/01/06 05:14:28;;;;;;;15.07;11.10;;;3.40;99.90;;;;;;5065248;28;20648;-58
2021/01/06 05:16:54;;;;;;;15.57;10.57;;;3.10;99.90;;;;;;5053685;28;20824;-58
2021/01/06 05:19:32;;;;;;;15.07;9.65;;;3.10;99.90;;;;;;5063741;28;20181;-58
2021/01/06 05:21:59;;;;;;;15.20;11.52;;;3.50;99.90;;;;;;5068619;28;20653;-58
2021/01/06 05:24:34;;;;;;;12.15;9.55;;;3.40;99.90;;;;;;5060798;28;20189;-55
2021/01/06 05:27:13;;;;;;;14.48;10.90;;;3.30;99.90;;;;;;5068471;28;20568;-58
2021/01/06 05:29:45;;;;;;;12.20;9.48;;;3.10;99.90;;;;;;5067061;28;20650;-58
2021/01/06 05:32:19;;;;;;;12.23;10.15;;;2.80;99.90;;;;;;5067346;28;20193;-58
2021/01/06 05:34:50;;;;;;;11.95;9.48;;;3.10;99.90;;;;;;5063176;28;20259;-58
2021/01/06 05:37:17;;;;;;;14.77;11.05;;;3.10;99.90;;;;;;5065161;28;20193;-58
2021/01/06 05:39:43;;;;;;;13.55;9.25;;;3.20;99.90;;;;;;5067707;28;20217;-58
2021/01/06 05:42:40;;;;;;;12.43;8.83;;;3.50;99.90;;;;;;5065740;28;20693;-55
2021/01/06 05:45:07;;;;;;;12.50;9.75;;;3.40;99.90;;;;;;5042354;28;20865;-56
2021/01/06 05:47:32;;;;;;;12.75;9.40;;;3.30;99.90;;;;;;5063562;28;20271;-56
2021/01/06 05:50:06;;;;;;;11.83;9.67;;;3.40;99.90;;;;;;5067781;28;20240;-58
2021/01/06 05:52:33;;;;;;;15.75;10.20;;;3.50;99.90;;;;;;5062120;28;20263;-56
2021/01/06 05:55:03;;;;;;;14.85;10.00;;;3.60;99.90;;;;;;5067064;28;20295;-58
2021/01/06 05:57:28;;;;;;;12.70;9.70;;;3.30;99.90;;;;;;5058431;28;20216;-58
2021/01/06 06:00:10;;;;;;;10.30;8.77;;;3.20;99.90;;;;;;5064759;28;20177;-57
2021/01/06 06:02:48;;;;;;;11.73;8.30;;;3.50;99.90;;;;;;5063754;28;20276;-55
2021/01/06 06:05:19;;;;;;;15.10;8.20;;;3.60;99.90;;;;;;5056025;28;20292;-58
2021/01/06 06:08:03;;;;;;;10.88;9.40;;;3.70;99.90;;;;;;5064756;28;20217;-55
2021/01/06 06:10:28;;;;;;;10.80;9.05;;;3.30;99.90;;;;;;5061578;28;20855;-55
2021/01/06 06:13:00;;;;;;;10.47;8.70;;;3.40;99.90;;;;;;5064940;28;20342;-57
2021/01/06 06:15:50;;;;;;;10.40;8.07;;;3.70;99.90;;;;;;5067094;28;20201;-58
2021/01/06 06:18:30;;;;;;;10.45;9.00;;;3.50;99.90;;;;;;5065073;28;20192;-57
2021/01/06 06:21:17;;;;;;;11.05;8.65;;;3.40;99.90;;;;;;5066770;28;20379;-57
2021/01/06 06:24:03;;;;;;;11.40;8.95;;;3.20;99.90;;;;;;5055130;28;20182;-58
2021/01/06 06:26:50;;;;;;;9.85;8.20;;;3.40;99.90;;;;;;5062562;28;20184;-58
2021/01/06 06:29:36;;;;;;;9.38;7.97;;;3.30;99.90;;;;;;5060677;28;20226;-56
2021/01/06 06:32:04;;;;;;;11.77;8.52;;;3.30;99.90;;;;;;5041223;28;20213;-58
2021/01/06 06:34:33;;;;;;;11.27;8.73;;;3.40;99.90;;;;;;5067570;28;20613;-58
2021/01/06 06:37:16;;;;;;;12.00;8.52;;;3.40;99.90;;;;;;5072093;28;20187;-58
2021/01/06 06:40:03;;;;;;;10.15;8.32;;;3.40;99.90;;;;;;5065746;28;20530;-58
2021/01/06 06:42:35;;;;;;;10.18;8.70;;;3.00;99.90;;;;;;5068381;28;20181;-58
2021/01/06 06:45:39;;;;;;;9.95;8.57;;;3.00;99.90;;;;;;5066824;28;20242;-58
2021/01/06 06:48:30;;;;;;;10.90;8.43;;;3.30;99.90;;;;;;5067156;28;20231;-58
2021/01/06 06:51:16;;;;;;;11.20;7.68;;;3.30;99.90;;;;;;5067694;28;20177;-58
2021/01/06 06:54:05;;;;;;;11.40;8.32;;;3.00;99.90;;;;;;5047965;28;20649;-58
2021/01/06 06:57:01;;;;;;;11.55;8.23;;;3.00;99.90;;;;;;5057702;28;20186;-58
2021/01/06 06:59:29;;;;;;;11.25;8.73;;;3.30;99.90;;;;;;5062880;28;20185;-57
2021/01/06 07:02:01;;;;;;;11.68;8.57;;;3.30;99.90;;;;;;5063962;28;20853;-58
2021/01/06 07:04:36;;;;;;;10.20;8.35;;;3.30;99.90;;;;;;5063703;28;20203;-58
2021/01/06 07:07:03;;;;;;;10.25;7.60;;;3.30;99.90;;;;;;5069302;28;20264;-58
2021/01/06 07:09:35;;;;;;;9.55;7.28;;;3.50;99.90;;;;;;5061202;28;20189;-58
2021/01/06 07:12:07;;;;;;;9.88;7.88;;;3.50;99.90;;;;;;5065167;28;20181;-57
2021/01/06 07:14:59;;;;;;;9.60;8.02;;;3.20;99.90;;;;;;5058134;28;20562;-58
2021/01/06 07:17:33;;;;;;;9.00;7.03;;;3.10;99.90;;;;;;5058717;28;20216;-58
2021/01/06 07:20:09;;;;;;;10.43;8.38;;;3.30;99.90;;;;;;5055740;28;20210;-57
2021/01/06 07:22:40;;;;;;;8.80;7.53;;;3.50;99.90;;;;;;5059585;28;20185;-58
2021/01/06 07:25:17;;;;;;;9.10;7.20;;;3.20;99.90;;;;;;5062246;28;20245;-58
2021/01/06 07:27:46;;;;;;;8.70;7.03;;;3.40;99.90;;;;;;5060903;28;20533;-57
2021/01/06 07:30:29;;;;;;;8.95;7.38;;;3.30;99.90;;;;;;5055502;28;20231;-58
2021/01/06 07:32:56;;;;;;;9.60;7.53;;;3.50;99.90;;;;;;5060435;28;20216;-58
2021/01/06 07:35:26;;;;;;;7.93;6.72;;;3.40;99.90;;;;;;5052193;28;20235;-57
2021/01/06 07:37:59;;;;;;;8.50;7.50;;;3.50;99.90;;;;;;5064038;28;20205;-58
2021/01/06 07:40:31;;;;;;;9.30;7.32;;;3.60;99.90;;;;;;5055124;28;20186;-58
2021/01/06 07:43:17;;;;;;;7.97;7.05;;;3.80;99.90;;;;;;5063326;28;20181;-58
2021/01/06 07:45:57;;;;;;;9.30;7.40;;;3.40;99.90;;;;;;5056050;28;20276;-58
2021/01/06 07:48:46;;;;;;;8.35;6.53;;;3.40;99.90;;;;;;5054779;28;20213;-58
2021/01/06 07:51:33;;;;;;;10.07;7.80;;;3.50;99.90;;;;;;5058578;28;20674;-58
2021/01/06 07:54:10;;;;;;;9.23;7.47;;;3.20;99.90;;;;;;5055562;28;20205;-58
2021/01/06 07:57:01;;;;;;;9.73;7.00;;;3.40;99.90;;;;;;5062260;28;20181;-58
2021/01/06 07:59:44;;;;;;;9.00;7.80;;;3.50;99.90;;;;;;5065619;28;20185;-57
2021/01/06 08:02:26;;;;;;;9.55;7.78;;;3.60;99.90;;;;;;5063208;28;20221;-57
2021/01/06 08:04:55;;;;;;;10.70;7.63;;;3.70;99.90;;;;;;5065422;28;20996;-58
2021/01/06 08:07:23;;;;;;;9.50;6.80;;;2.70;99.90;;;;;;5053622;28;20216;-57
2021/01/06 08:09:49;;;;;;;9.80;7.43;;;2.90;99.90;;;;;;5064669;28;20206;-58
2021/01/06 08:12:25;;;;;;;7.82;6.95;;;3.50;99.90;;;;;;5053669;28;20687;-59
2021/01/06 08:15:09;;;;;;;7.25;6.50;;;3.50;99.90;;;;;;5058596;28;20256;-56
2021/01/06 08:17:46;;;;;;;8.90;7.38;;;3.40;99.90;;;;;;5057855;28;20216;-56
2021/01/06 08:20:28;;;;;;;8.00;7.22;;;3.20;99.90;;;;;;5055837;28;20173;-59
2021/01/06 08:23:26;;;;;;;9.57;7.28;;;3.50;99.90;;;;;;5056011;28;20268;-56
2021/01/06 08:26:12;;;;;;;8.90;8.00;;;3.20;99.90;;;;;;5059839;28;20248;-58
2021/01/06 08:28:38;;;;;;;11.05;8.05;;;3.30;99.90;;;;;;5056810;28;20760;-59
2021/01/06 08:31:21;;;;;;;13.83;7.63;;;3.30;99.90;;;;;;5066065;28;20181;-58
2021/01/06 08:33:55;;;;;;;10.77;7.07;;;3.60;99.90;;;;;;5058344;28;20960;-58
2021/01/06 08:36:29;;;;;;;9.20;7.85;;;3.30;99.90;;;;;;5063065;28;20211;-58
2021/01/06 08:39:17;;;;;;;10.32;7.93;;;3.50;99.90;;;;;;5064403;28;20227;-58
2021/01/06 08:41:44;;;;;;;9.88;6.88;;;3.40;99.90;;;;;;5055269;28;20224;-57
2021/01/06 08:44:41;;;;;;;9.25;7.88;;;3.20;99.90;;;;;;5050946;28;20189;-58
2021/01/06 08:47:11;;;;;;;10.63;7.53;;;3.20;99.90;;;;;;5066793;28;20579;-58
2021/01/06 08:49:40;;;;;;;11.35;8.73;;;3.20;99.90;;;;;;5057052;28;20181;-57
2021/01/06 08:52:15;;;;;;;9.60;7.80;;;3.20;99.90;;;;;;5055353;28;20198;-57
2021/01/06 08:54:40;;;;;;;10.93;8.05;;;3.20;99.90;;;;;;5063667;28;20549;-58
2021/01/06 08:57:36;;;;;;;9.23;7.57;;;3.10;99.90;;;;;;5068514;28;20188;-57
2021/01/06 09:00:13;;;;;;;8.10;7.30;;;2.70;99.90;;;;;;5051711;28;20639;-58
2021/01/06 09:02:48;;;;;;;7.82;7.03;;;3.40;99.90;;;;;;5053570;28;20189;-57
2021/01/06 09:05:38;;;;;;;9.73;7.18;;;3.40;99.90;;;;;;5050374;28;20231;-58
2021/01/06 09:08:27;;;;;;;7.97;7.00;;;3.30;99.90;;;;;;5059957;28;20220;-58
2021/01/06 09:11:14;;;;;;;7.32;6.50;;;3.30;99.90;;;;;;5064689;28;20210;-58
2021/01/06 09:14:11;;;;;;;8.15;6.60;;;3.40;99.90;;;;;;5068415;28;20655;-58
2021/01/06 09:17:05;;;;;;;8.70;7.18;;;3.40;99.90;;;;;;5062894;28;20197;-58
2021/01/06 09:19:53;;;;;;;9.25;6.95;;;3.20;99.90;;;;;;5057401;28;20303;-58
2021/01/06 09:22:20;;;;;;;8.88;7.97;;;3.40;99.90;;;;;;5061064;28;20173;-58
2021/01/06 09:24:46;;;;;;;8.95;6.50;;;3.00;99.90;;;;;;5054935;28;20177;-58
2021/01/06 09:27:34;;;;;;;8.32;7.07;;;3.40;99.90;;;;;;5058673;28;20687;-58
2021/01/06 09:30:04;;;;;;;7.45;6.53;;;3.50;99.90;;;;;;5052669;28;20710;-58
2021/01/06 09:32:35;;;;;;;9.85;7.00;;;3.30;99.90;;;;;;5061112;28;20294;-58
2021/01/06 09:35:16;;;;;;;13.48;10.38;;;2.50;99.90;;;;;;5053717;28;20212;-58
2021/01/06 09:38:06;;;;;;;8.80;6.80;;;3.00;99.90;;;;;;5057373;28;20606;-58
2021/01/06 09:40:34;;;;;;;8.57;7.00;;;3.10;99.90;;;;;;5056233;28;20666;-58
2021/01/06 09:43:19;;;;;;;9.10;7.75;;;3.30;99.90;;;;;;5053914;28;20186;-58
2021/01/06 09:45:45;;;;;;;11.90;7.25;;;3.20;99.90;;;;;;5049590;28;20241;-57
2021/01/06 09:48:12;;;;;;;10.40;7.32;;;3.10;99.90;;;;;;5059873;28;20633;-58
2021/01/06 09:50:49;;;;;;;10.85;7.55;;;3.10;99.90;;;;;;5059917;28;20188;-57
2021/01/06 09:53:19;;;;;;;8.70;7.13;;;3.20;99.90;;;;;;5056232;28;20185;-58
2021/01/06 09:55:48;;;;;;;9.65;7.88;;;3.30;99.90;;;;;;5051278;28;20209;-57
2021/01/06 09:58:36;;;;;;;8.70;7.13;;;3.70;99.90;;;;;;5055733;28;20193;-57
2021/01/06 10:01:11;;;;;;;8.80;6.70;;;3.30;99.90;;;;;;5066665;28;20255;-58
2021/01/06 10:03:41;;;;;;;8.15;7.22;;;3.40;99.90;;;;;;5055407;28;20207;-57
2021/01/06 10:06:24;;;;;;;10.65;7.93;;;2.80;99.90;;;;;;5060003;28;20182;-59
2021/01/06 10:09:03;;;;;;;10.70;8.50;;;3.20;99.90;;;;;;5054437;28;20291;-58
2021/01/06 10:11:51;;;;;;;9.45;7.70;;;3.20;99.90;;;;;;5059520;28;20531;-58
2021/01/06 10:14:48;;;;;;;9.38;7.32;;;2.90;99.90;;;;;;5049982;28;20204;-57
2021/01/06 10:17:22;;;;;;;10.23;8.00;;;3.10;99.90;;;;;;5063540;28;20209;-58
2021/01/06 10:20:19;;;;;;;9.40;7.82;;;3.20;99.90;;;;;;5049722;28;20173;-58
2021/01/06 10:22:52;;;;;;;9.73;8.07;;;3.00;99.90;;;;;;5055365;28;20192;-59
2021/01/06 10:25:21;;;;;;;9.95;7.30;;;3.20;99.90;;;;;;5059512;28;20188;-58
2021/01/06 10:28:01;;;;;;;9.20;7.82;;;3.00;99.90;;;;;;5054684;28;20685;-59
2021/01/06 10:30:30;;;;;;;9.38;7.80;;;3.30;99.90;;;;;;5055987;28;20216;-57
2021/01/06 10:33:21;;;;;;;9.05;7.75;;;3.20;99.90;;;;;;5057997;28;22197;-57
2021/01/06 10:36:13;;;;;;;11.98;8.50;;;3.30;99.90;;;;;;5059196;28;20254;-58
2021/01/06 10:38:51;;;;;;;8.50;7.25;;;3.10;99.90;;;;;;5062195;28;20697;-58
2021/01/06 10:41:24;;;;;;;9.15;7.72;;;3.30;99.90;;;;;;5057766;28;20188;-58
2021/01/06 10:43:52;;;;;;;11.15;7.80;;;3.30;99.90;;;;;;5062086;28;20177;-59
2021/01/06 10:46:47;;;;;;;16.27;9.77;;;3.30;99.90;;;;;;5051619;28;20651;-58
2021/01/06 10:49:19;;;;;;;9.48;8.20;;;3.40;99.90;;;;;;5046092;28;20218;-59
2021/01/06 10:52:01;;;;;;;8.85;7.90;;;3.40;99.90;;;;;;5053558;28;20216;-57
2021/01/06 10:54:39;;;;;;;9.73;7.80;;;3.20;99.90;;;;;;5058257;28;20207;-57
2021/01/06 10:57:48;;;;;;;9.35;8.25;;;3.50;99.90;;;;;;5060094;28;20186;-58
2021/01/06 11:00:24;;;;;;;10.18;8.10;;;3.60;99.90;;;;;;5057049;28;20438;-57
2021/01/06 11:03:11;;;;;;;11.27;8.32;;;3.40;99.90;;;;;;5053488;28;20180;-58
2021/01/06 11:05:59;;;;;;;12.45;9.15;;;3.20;99.90;;;;;;5057718;28;20184;-57
2021/01/06 11:08:50;;;;;;;10.95;9.25;;;3.30;99.90;;;;;;5051590;28;20220;-59
2021/01/06 11:11:27;;;;;;;11.55;8.43;;;3.20;99.90;;;;;;5064200;28;20185;-59
2021/01/06 11:14:28;;;;;;;9.15;7.80;;;3.50;99.90;;;;;;5066286;28;20221;-59
2021/01/06 11:17:16;;;;;;;13.40;9.50;;;3.20;99.90;;;;;;5060449;28;20262;-58
2021/01/06 11:20:03;;;;;;;11.73;8.68;;;3.20;99.90;;;;;;5056436;28;20590;-58
2021/01/06 11:22:43;;;;;;;12.95;9.30;;;3.30;99.90;;;;;;5068661;28;20196;-57
2021/01/06 11:25:38;;;;;;;9.88;8.07;;;3.20;99.90;;;;;;5060092;28;20824;-59
2021/01/06 11:28:04;;;;;;;10.77;8.63;;;3.20;99.90;;;;;;5055519;28;20205;-58
2021/01/06 11:30:35;;;;;;;9.93;8.50;;;3.20;99.90;;;;;;5064671;28;20551;-58
2021/01/06 11:33:27;;;;;;;12.20;8.90;;;3.40;99.90;;;;;;5066271;28;20831;-58
2021/01/06 11:35:55;;;;;;;11.93;9.20;;;3.10;99.90;;;;;;5079679;28;20201;-58
2021/01/06 11:38:41;;;;;;;11.23;9.80;;;3.30;99.90;;;;;;5053936;28;20690;-59
2021/01/06 11:41:25;;;;;;;11.85;9.73;;;3.40;99.90;;;;;;5054600;28;20957;-57
2021/01/06 11:44:28;;;;;;;10.88;8.27;;;3.30;99.90;;;;;;5055452;28;20190;-58
2021/01/06 11:47:02;;;;;;;13.32;10.40;;;3.30;99.90;;;;;;5063334;28;20197;-59
2021/01/06 11:49:30;;;;;;;10.55;8.60;;;3.40;99.90;;;;;;5059732;28;20189;-60
2021/01/06 11:52:14;;;;;;;11.38;8.93;;;3.40;99.90;;;;;;5062072;28;20189;-59
2021/01/06 11:54:48;;;;;;;11.93;9.10;;;3.40;99.90;;;;;;5057141;28;20220;-58
2021/01/06 11:57:39;;;;;;;11.43;9.30;;;3.60;99.90;;;;;;5061530;28;20319;-58
2021/01/06 12:00:17;;;;;;;12.55;10.20;;;3.50;99.90;;;;;;5060640;28;20181;-57
2021/01/06 12:03:03;;;;;;;10.68;9.57;;;3.70;99.90;;;;;;5056419;28;20184;-57
2021/01/06 12:05:32;;;;;;;12.30;8.70;;;3.70;99.90;;;;;;5058014;28;20184;-58
2021/01/06 12:08:18;;;;;;;11.10;9.15;;;3.70;99.90;;;;;;5053923;28;20210;-57
2021/01/06 12:11:03;;;;;;;16.45;9.82;;;3.50;99.90;;;;;;5061955;28;20238;-57
2021/01/06 12:13:49;;;;;;;10.15;8.00;;;3.70;99.90;;;;;;5054473;28;20177;-56
2021/01/06 12:16:46;;;;;;;10.93;8.35;;;3.60;99.90;;;;;;5061412;28;20209;-59
2021/01/06 12:19:17;;;;;;;10.43;8.90;;;3.70;99.90;;;;;;5057552;28;20216;-59
2021/01/06 12:21:54;;;;;;;11.50;9.32;;;3.90;99.90;;;;;;5057958;28;20181;-58
2021/01/06 12:24:29;;;;;;;12.50;9.50;;;3.90;99.90;;;;;;5052364;28;20188;-58
2021/01/06 12:27:04;;;;;;;9.60;8.30;;;3.80;99.90;;;;;;5057195;28;20185;-57
2021/01/06 12:29:56;;;;;;;10.68;8.32;;;4.00;99.90;;;;;;5060033;28;20181;-57
2021/01/06 12:32:27;;;;;;;9.90;8.10;;;4.10;99.90;;;;;;5052618;28;20297;-57
2021/01/06 12:35:19;;;;;;;11.38;9.07;;;4.00;99.90;;;;;;5056101;28;20230;-56
2021/01/06 12:38:15;;;;;;;10.05;8.15;;;3.80;99.90;;;;;;5061395;28;20209;-56
2021/01/06 12:41:03;;;;;;;8.50;7.47;;;4.20;99.90;;;;;;5052067;28;20763;-57
2021/01/06 12:43:57;;;;;;;10.27;7.95;;;3.90;99.90;;;;;;5052131;28;20189;-56
2021/01/06 12:46:34;;;;;;;8.50;7.28;;;3.80;99.90;;;;;;5062225;28;20213;-56
2021/01/06 12:49:26;;;;;;;10.38;8.43;;;3.80;99.90;;;;;;5063895;28;20292;-56
2021/01/06 12:52:13;;;;;;;9.02;7.90;;;3.90;99.90;;;;;;5062875;28;20208;-57
2021/01/06 12:54:44;;;;;;;9.25;8.10;;;4.00;99.90;;;;;;5048499;28;20666;-56
2021/01/06 12:57:19;;;;;;;10.18;7.85;;;3.60;99.90;;;;;;5057190;28;20651;-56
2021/01/06 12:59:56;;;;;;;9.65;8.30;;;3.60;99.90;;;;;;5068143;28;20225;-56
2021/01/06 13:02:33;;;;;;;10.55;8.77;;;3.90;99.90;;;;;;5068469;28;20192;-56
2021/01/06 13:05:14;;;;;;;9.10;8.07;;;3.90;99.90;;;;;;5065646;28;20237;-56
2021/01/06 13:07:47;;;;;;;10.18;7.95;;;4.00;99.90;;;;;;5067781;28;20288;-56
2021/01/06 13:10:41;;;;;;;8.13;6.78;;;3.90;99.90;;;;;;5054326;28;20552;-56
2021/01/06 13:13:25;;;;;;;7.13;6.32;;;3.90;99.90;;;;;;5057287;28;20185;-55
2021/01/06 13:16:14;;;;;;;7.20;6.40;;;3.70;99.90;;;;;;5053261;28;20209;-57
2021/01/06 13:18:49;;;;;;;9.07;7.50;;;3.60;99.90;;;;;;5059418;28;20205;-55
2021/01/06 13:21:26;;;;;;;9.27;7.72;;;3.50;99.90;;;;;;5057924;28;20191;-57
2021/01/06 13:23:55;;;;;;;9.05;6.63;;;3.30;99.90;;;;;;5059269;28;20181;-58
2021/01/06 13:26:32;;;;;;;8.70;6.70;;;3.60;99.90;;;;;;5055344;28;20689;-57
2021/01/06 13:29:10;;;;;;;9.00;7.35;;;3.80;99.90;;;;;;5062169;28;20213;-57
2021/01/06 13:31:43;;;;;;;8.48;6.95;;;3.20;99.90;;;;;;5063959;28;20186;-57
2021/01/06 13:34:31;;;;;;;11.43;7.15;;;3.90;99.90;;;;;;5054256;28;20246;-57